sensor_id;sensor_type;location;lat;lon;timestamp;P1;durP1;ratioP1;P2;durP2;ratioP2
22713;SDS011;11524;50.846;4.326;2023-04-06T00:01:36;5.63;;;3.63;;
22713;SDS011;11524;50.846;4.326;2023-04-06T00:04:02;6.28;;;4.43;;
22713;SDS011;11524;50.846;4.326;2023-04-06T00:06:28;6.47;;;4.10;;
22713;SDS011;11524;50.846;4.326;2023-04-06T00:08:53;5.53;;;3.90;;
22713;SDS011;11524;50.846;4.326;2023-04-06T00:11:20;5.18;;;3.80;;
22713;SDS011;11524;50.846;4.326;2023-04-06T00:13:45;6.80;;;4.03;;
22713;SDS011;11524;50.846;4.326;2023-04-06T00:16:11;5.20;;;3.45;;
22713;SDS011;11524;50.846;4.326;2023-04-06T00:18:37;6.03;;;3.83;;
22713;SDS011;11524;50.846;4.326;2023-04-06T00:21:04;7.05;;;3.75;;
22713;SDS011;11524;50.846;4.326;2023-04-06T00:23:30;6.28;;;4.25;;
22713;SDS011;11524;50.846;4.326;2023-04-06T00:25:55;6.80;;;4.05;;
22713;SDS011;11524;50.846;4.326;2023-04-06T00:28:21;4.35;;;3.30;;
22713;SDS011;11524;50.846;4.326;2023-04-06T00:30:50;5.40;;;3.47;;
22713;SDS011;11524;50.846;4.326;2023-04-06T00:33:20;6.28;;;4.15;;
22713;SDS011;11524;50.846;4.326;2023-04-06T00:35:46;5.38;;;3.88;;
22713;SDS011;11524;50.846;4.326;2023-04-06T00:38:12;8.55;;;3.47;;
22713;SDS011;11524;50.846;4.326;2023-04-06T00:40:38;6.10;;;4.05;;
22713;SDS011;11524;50.846;4.326;2023-04-06T00:43:06;5.78;;;3.83;;
22713;SDS011;11524;50.846;4.326;2023-04-06T00:45:34;6.63;;;4.30;;
22713;SDS011;11524;50.846;4.326;2023-04-06T00:47:59;5.70;;;3.72;;
22713;SDS011;11524;50.846;4.326;2023-04-06T00:50:26;5.90;;;3.42;;
22713;SDS011;11524;50.846;4.326;2023-04-06T00:52:52;4.75;;;3.30;;
22713;SDS011;11524;50.846;4.326;2023-04-06T00:55:18;7.00;;;3.95;;
22713;SDS011;11524;50.846;4.326;2023-04-06T00:57:44;4.30;;;3.40;;
22713;SDS011;11524;50.846;4.326;2023-04-06T01:00:10;7.45;;;5.05;;
22713;SDS011;11524;50.846;4.326;2023-04-06T01:02:37;10.50;;;5.57;;
22713;SDS011;11524;50.846;4.326;2023-04-06T01:05:03;8.05;;;5.65;;
22713;SDS011;11524;50.846;4.326;2023-04-06T01:07:29;7.72;;;6.28;;
22713;SDS011;11524;50.846;4.326;2023-04-06T01:09:55;12.25;;;4.78;;
22713;SDS011;11524;50.846;4.326;2023-04-06T01:12:21;9.45;;;5.93;;
22713;SDS011;11524;50.846;4.326;2023-04-06T01:14:46;7.70;;;6.38;;
22713;SDS011;11524;50.846;4.326;2023-04-06T01:17:13;9.63;;;5.60;;
22713;SDS011;11524;50.846;4.326;2023-04-06T01:19:38;8.20;;;4.97;;
22713;SDS011;11524;50.846;4.326;2023-04-06T01:22:05;10.32;;;6.32;;
22713;SDS011;11524;50.846;4.326;2023-04-06T01:24:31;7.30;;;5.32;;
22713;SDS011;11524;50.846;4.326;2023-04-06T01:26:57;8.48;;;5.53;;
22713;SDS011;11524;50.846;4.326;2023-04-06T01:29:23;9.10;;;6.63;;
22713;SDS011;11524;50.846;4.326;2023-04-06T01:31:49;9.35;;;6.97;;
22713;SDS011;11524;50.846;4.326;2023-04-06T01:34:15;7.88;;;5.80;;
22713;SDS011;11524;50.846;4.326;2023-04-06T01:36:41;6.93;;;4.82;;
22713;SDS011;11524;50.846;4.326;2023-04-06T01:39:07;8.60;;;6.35;;
22713;SDS011;11524;50.846;4.326;2023-04-06T01:41:32;8.32;;;5.72;;
22713;SDS011;11524;50.846;4.326;2023-04-06T01:43:58;8.60;;;6.35;;
22713;SDS011;11524;50.846;4.326;2023-04-06T01:46:24;9.07;;;5.47;;
22713;SDS011;11524;50.846;4.326;2023-04-06T01:48:50;8.55;;;6.20;;
22713;SDS011;11524;50.846;4.326;2023-04-06T01:51:15;7.65;;;5.80;;
22713;SDS011;11524;50.846;4.326;2023-04-06T01:53:41;8.68;;;5.72;;
22713;SDS011;11524;50.846;4.326;2023-04-06T01:56:07;7.25;;;5.28;;
22713;SDS011;11524;50.846;4.326;2023-04-06T01:58:32;8.02;;;5.32;;
22713;SDS011;11524;50.846;4.326;2023-04-06T02:00:58;9.45;;;5.78;;
22713;SDS011;11524;50.846;4.326;2023-04-06T02:03:24;6.82;;;4.38;;
22713;SDS011;11524;50.846;4.326;2023-04-06T02:05:50;8.55;;;4.65;;
22713;SDS011;11524;50.846;4.326;2023-04-06T02:08:15;7.82;;;5.78;;
22713;SDS011;11524;50.846;4.326;2023-04-06T02:10:41;8.68;;;6.60;;
22713;SDS011;11524;50.846;4.326;2023-04-06T02:13:06;7.15;;;5.75;;
22713;SDS011;11524;50.846;4.326;2023-04-06T02:15:32;8.40;;;6.45;;
22713;SDS011;11524;50.846;4.326;2023-04-06T02:17:58;8.50;;;5.47;;
22713;SDS011;11524;50.846;4.326;2023-04-06T02:20:24;9.00;;;6.13;;
22713;SDS011;11524;50.846;4.326;2023-04-06T02:22:50;9.98;;;6.88;;
22713;SDS011;11524;50.846;4.326;2023-04-06T02:25:15;9.40;;;6.10;;
22713;SDS011;11524;50.846;4.326;2023-04-06T02:27:41;7.57;;;5.75;;
22713;SDS011;11524;50.846;4.326;2023-04-06T02:30:07;9.68;;;6.55;;
22713;SDS011;11524;50.846;4.326;2023-04-06T02:32:33;8.70;;;6.05;;
22713;SDS011;11524;50.846;4.326;2023-04-06T02:34:59;8.10;;;5.68;;
22713;SDS011;11524;50.846;4.326;2023-04-06T02:37:25;8.70;;;6.20;;
22713;SDS011;11524;50.846;4.326;2023-04-06T02:39:50;8.57;;;6.28;;
22713;SDS011;11524;50.846;4.326;2023-04-06T02:42:16;8.88;;;5.43;;
22713;SDS011;11524;50.846;4.326;2023-04-06T02:44:42;9.35;;;5.35;;
22713;SDS011;11524;50.846;4.326;2023-04-06T02:47:08;8.45;;;5.63;;
22713;SDS011;11524;50.846;4.326;2023-04-06T02:49:34;8.07;;;5.80;;
22713;SDS011;11524;50.846;4.326;2023-04-06T02:52:00;7.55;;;5.38;;
22713;SDS011;11524;50.846;4.326;2023-04-06T02:54:26;6.57;;;4.93;;
22713;SDS011;11524;50.846;4.326;2023-04-06T02:56:52;8.30;;;6.05;;
22713;SDS011;11524;50.846;4.326;2023-04-06T02:59:18;8.10;;;5.57;;
22713;SDS011;11524;50.846;4.326;2023-04-06T03:01:43;7.40;;;5.30;;
22713;SDS011;11524;50.846;4.326;2023-04-06T03:04:09;6.82;;;5.53;;
22713;SDS011;11524;50.846;4.326;2023-04-06T03:06:35;8.30;;;5.35;;
22713;SDS011;11524;50.846;4.326;2023-04-06T03:09:01;10.38;;;5.35;;
22713;SDS011;11524;50.846;4.326;2023-04-06T03:11:27;7.78;;;5.55;;
22713;SDS011;11524;50.846;4.326;2023-04-06T03:13:52;8.48;;;6.72;;
22713;SDS011;11524;50.846;4.326;2023-04-06T03:16:18;7.45;;;5.65;;
22713;SDS011;11524;50.846;4.326;2023-04-06T03:18:45;7.63;;;6.00;;
22713;SDS011;11524;50.846;4.326;2023-04-06T03:21:12;6.70;;;4.90;;
22713;SDS011;11524;50.846;4.326;2023-04-06T03:23:38;8.57;;;5.78;;
22713;SDS011;11524;50.846;4.326;2023-04-06T03:26:03;8.38;;;5.82;;
22713;SDS011;11524;50.846;4.326;2023-04-06T03:28:29;9.32;;;6.15;;
22713;SDS011;11524;50.846;4.326;2023-04-06T03:30:55;8.93;;;6.03;;
22713;SDS011;11524;50.846;4.326;2023-04-06T03:33:20;9.98;;;6.65;;
22713;SDS011;11524;50.846;4.326;2023-04-06T03:35:46;6.25;;;4.93;;
22713;SDS011;11524;50.846;4.326;2023-04-06T03:38:11;8.15;;;6.00;;
22713;SDS011;11524;50.846;4.326;2023-04-06T03:40:37;8.98;;;6.25;;
22713;SDS011;11524;50.846;4.326;2023-04-06T03:43:03;7.68;;;6.20;;
22713;SDS011;11524;50.846;4.326;2023-04-06T03:45:29;8.70;;;6.35;;
22713;SDS011;11524;50.846;4.326;2023-04-06T03:47:55;6.13;;;5.30;;
22713;SDS011;11524;50.846;4.326;2023-04-06T03:50:21;7.60;;;5.88;;
22713;SDS011;11524;50.846;4.326;2023-04-06T03:52:46;6.82;;;4.90;;
22713;SDS011;11524;50.846;4.326;2023-04-06T03:55:12;8.48;;;5.90;;
22713;SDS011;11524;50.846;4.326;2023-04-06T03:57:38;8.77;;;6.18;;
22713;SDS011;11524;50.846;4.326;2023-04-06T04:00:03;10.27;;;5.75;;
22713;SDS011;11524;50.846;4.326;2023-04-06T04:02:29;7.28;;;6.25;;
22713;SDS011;11524;50.846;4.326;2023-04-06T04:04:55;8.13;;;5.80;;
22713;SDS011;11524;50.846;4.326;2023-04-06T04:07:21;7.93;;;5.60;;
22713;SDS011;11524;50.846;4.326;2023-04-06T04:09:46;9.23;;;6.60;;
22713;SDS011;11524;50.846;4.326;2023-04-06T04:12:12;7.78;;;5.15;;
22713;SDS011;11524;50.846;4.326;2023-04-06T04:14:39;8.52;;;6.38;;
22713;SDS011;11524;50.846;4.326;2023-04-06T04:17:05;8.27;;;5.70;;
22713;SDS011;11524;50.846;4.326;2023-04-06T04:19:30;6.45;;;4.78;;
22713;SDS011;11524;50.846;4.326;2023-04-06T04:21:56;10.48;;;5.90;;
22713;SDS011;11524;50.846;4.326;2023-04-06T04:24:21;6.97;;;4.55;;
22713;SDS011;11524;50.846;4.326;2023-04-06T04:26:47;7.93;;;5.60;;
22713;SDS011;11524;50.846;4.326;2023-04-06T04:29:13;9.80;;;5.45;;
22713;SDS011;11524;50.846;4.326;2023-04-06T04:31:38;10.88;;;5.90;;
22713;SDS011;11524;50.846;4.326;2023-04-06T04:34:04;7.32;;;5.65;;
22713;SDS011;11524;50.846;4.326;2023-04-06T04:36:31;6.63;;;4.60;;
22713;SDS011;11524;50.846;4.326;2023-04-06T04:38:57;8.40;;;5.40;;
22713;SDS011;11524;50.846;4.326;2023-04-06T04:41:23;7.30;;;4.95;;
22713;SDS011;11524;50.846;4.326;2023-04-06T04:43:48;8.30;;;5.85;;
22713;SDS011;11524;50.846;4.326;2023-04-06T04:46:14;8.98;;;4.53;;
22713;SDS011;11524;50.846;4.326;2023-04-06T04:48:40;8.45;;;5.35;;
22713;SDS011;11524;50.846;4.326;2023-04-06T04:51:05;8.30;;;6.30;;
22713;SDS011;11524;50.846;4.326;2023-04-06T04:53:31;7.47;;;5.15;;
22713;SDS011;11524;50.846;4.326;2023-04-06T04:55:57;8.05;;;5.43;;
22713;SDS011;11524;50.846;4.326;2023-04-06T04:58:22;9.35;;;4.53;;
22713;SDS011;11524;50.846;4.326;2023-04-06T05:00:48;7.10;;;4.57;;
22713;SDS011;11524;50.846;4.326;2023-04-06T05:03:18;9.75;;;6.15;;
22713;SDS011;11524;50.846;4.326;2023-04-06T05:05:47;7.13;;;4.97;;
22713;SDS011;11524;50.846;4.326;2023-04-06T05:08:13;9.98;;;5.05;;
22713;SDS011;11524;50.846;4.326;2023-04-06T05:10:38;8.65;;;4.72;;
22713;SDS011;11524;50.846;4.326;2023-04-06T05:13:04;8.75;;;6.13;;
22713;SDS011;11524;50.846;4.326;2023-04-06T05:15:30;7.88;;;4.53;;
22713;SDS011;11524;50.846;4.326;2023-04-06T05:17:56;9.18;;;6.57;;
22713;SDS011;11524;50.846;4.326;2023-04-06T05:20:21;8.68;;;6.47;;
22713;SDS011;11524;50.846;4.326;2023-04-06T05:22:47;6.55;;;4.13;;
22713;SDS011;11524;50.846;4.326;2023-04-06T05:25:13;8.27;;;4.90;;
22713;SDS011;11524;50.846;4.326;2023-04-06T05:27:42;6.53;;;3.67;;
22713;SDS011;11524;50.846;4.326;2023-04-06T05:30:08;4.07;;;3.47;;
22713;SDS011;11524;50.846;4.326;2023-04-06T05:32:34;6.10;;;3.92;;
22713;SDS011;11524;50.846;4.326;2023-04-06T05:35:00;6.82;;;3.53;;
22713;SDS011;11524;50.846;4.326;2023-04-06T05:37:25;12.27;;;8.88;;
22713;SDS011;11524;50.846;4.326;2023-04-06T05:39:51;13.15;;;9.20;;
22713;SDS011;11524;50.846;4.326;2023-04-06T05:42:17;14.10;;;10.30;;
22713;SDS011;11524;50.846;4.326;2023-04-06T05:44:42;11.80;;;7.95;;
22713;SDS011;11524;50.846;4.326;2023-04-06T05:47:08;10.57;;;8.43;;
22713;SDS011;11524;50.846;4.326;2023-04-06T05:49:34;12.75;;;8.65;;
22713;SDS011;11524;50.846;4.326;2023-04-06T05:52:00;12.45;;;8.23;;
22713;SDS011;11524;50.846;4.326;2023-04-06T05:54:26;10.10;;;7.40;;
22713;SDS011;11524;50.846;4.326;2023-04-06T05:56:52;14.43;;;8.90;;
22713;SDS011;11524;50.846;4.326;2023-04-06T05:59:17;11.75;;;7.65;;
22713;SDS011;11524;50.846;4.326;2023-04-06T06:01:43;10.32;;;8.10;;
22713;SDS011;11524;50.846;4.326;2023-04-06T06:04:09;10.70;;;7.88;;
22713;SDS011;11524;50.846;4.326;2023-04-06T06:06:35;9.73;;;7.22;;
22713;SDS011;11524;50.846;4.326;2023-04-06T06:09:01;11.15;;;6.05;;
22713;SDS011;11524;50.846;4.326;2023-04-06T06:11:28;11.57;;;6.55;;
22713;SDS011;11524;50.846;4.326;2023-04-06T06:13:54;9.07;;;7.90;;
22713;SDS011;11524;50.846;4.326;2023-04-06T06:16:20;11.63;;;8.73;;
22713;SDS011;11524;50.846;4.326;2023-04-06T06:18:46;9.63;;;7.20;;
22713;SDS011;11524;50.846;4.326;2023-04-06T06:21:12;11.15;;;6.95;;
22713;SDS011;11524;50.846;4.326;2023-04-06T06:23:38;12.75;;;7.43;;
22713;SDS011;11524;50.846;4.326;2023-04-06T06:26:04;12.02;;;8.10;;
22713;SDS011;11524;50.846;4.326;2023-04-06T06:28:30;12.02;;;8.48;;
22713;SDS011;11524;50.846;4.326;2023-04-06T06:30:56;9.88;;;7.15;;
22713;SDS011;11524;50.846;4.326;2023-04-06T06:33:22;9.75;;;8.48;;
22713;SDS011;11524;50.846;4.326;2023-04-06T06:35:48;9.07;;;7.72;;
22713;SDS011;11524;50.846;4.326;2023-04-06T06:38:13;10.13;;;7.20;;
22713;SDS011;11524;50.846;4.326;2023-04-06T06:40:40;11.85;;;8.43;;
22713;SDS011;11524;50.846;4.326;2023-04-06T06:43:06;9.18;;;6.63;;
22713;SDS011;11524;50.846;4.326;2023-04-06T06:45:31;8.10;;;6.53;;
22713;SDS011;11524;50.846;4.326;2023-04-06T06:47:57;10.60;;;7.95;;
22713;SDS011;11524;50.846;4.326;2023-04-06T06:50:23;9.80;;;7.20;;
22713;SDS011;11524;50.846;4.326;2023-04-06T06:52:48;9.95;;;7.05;;
22713;SDS011;11524;50.846;4.326;2023-04-06T06:55:14;10.50;;;6.80;;
22713;SDS011;11524;50.846;4.326;2023-04-06T06:57:43;10.57;;;7.63;;
22713;SDS011;11524;50.846;4.326;2023-04-06T07:00:11;10.57;;;7.60;;
22713;SDS011;11524;50.846;4.326;2023-04-06T07:02:38;10.13;;;6.60;;
22713;SDS011;11524;50.846;4.326;2023-04-06T07:05:04;10.32;;;7.15;;
22713;SDS011;11524;50.846;4.326;2023-04-06T07:07:31;9.68;;;7.45;;
22713;SDS011;11524;50.846;4.326;2023-04-06T07:09:57;9.27;;;7.75;;
22713;SDS011;11524;50.846;4.326;2023-04-06T07:12:23;11.00;;;7.63;;
22713;SDS011;11524;50.846;4.326;2023-04-06T07:14:49;8.93;;;5.95;;
22713;SDS011;11524;50.846;4.326;2023-04-06T07:17:14;14.70;;;7.30;;
22713;SDS011;11524;50.846;4.326;2023-04-06T07:19:40;10.23;;;7.50;;
22713;SDS011;11524;50.846;4.326;2023-04-06T07:22:06;9.25;;;6.82;;
22713;SDS011;11524;50.846;4.326;2023-04-06T07:24:31;13.00;;;7.22;;
22713;SDS011;11524;50.846;4.326;2023-04-06T07:26:58;9.73;;;7.05;;
22713;SDS011;11524;50.846;4.326;2023-04-06T07:29:27;9.30;;;5.97;;
22713;SDS011;11524;50.846;4.326;2023-04-06T07:31:53;9.07;;;6.40;;
22713;SDS011;11524;50.846;4.326;2023-04-06T07:34:19;9.50;;;6.65;;
22713;SDS011;11524;50.846;4.326;2023-04-06T07:37:06;7.78;;;5.70;;
22713;SDS011;11524;50.846;4.326;2023-04-06T07:39:40;8.75;;;5.50;;
22713;SDS011;11524;50.846;4.326;2023-04-06T07:42:06;7.43;;;5.13;;
22713;SDS011;11524;50.846;4.326;2023-04-06T07:44:31;9.10;;;5.72;;
22713;SDS011;11524;50.846;4.326;2023-04-06T07:46:59;6.10;;;5.35;;
22713;SDS011;11524;50.846;4.326;2023-04-06T07:49:25;8.60;;;5.50;;
22713;SDS011;11524;50.846;4.326;2023-04-06T07:51:51;8.25;;;5.32;;
22713;SDS011;11524;50.846;4.326;2023-04-06T07:54:16;7.25;;;4.65;;
22713;SDS011;11524;50.846;4.326;2023-04-06T07:56:42;6.20;;;4.63;;
22713;SDS011;11524;50.846;4.326;2023-04-06T07:59:08;6.65;;;4.28;;
22713;SDS011;11524;50.846;4.326;2023-04-06T08:01:34;5.50;;;3.80;;
22713;SDS011;11524;50.846;4.326;2023-04-06T08:03:59;6.18;;;4.68;;
22713;SDS011;11524;50.846;4.326;2023-04-06T08:06:27;7.40;;;5.18;;
22713;SDS011;11524;50.846;4.326;2023-04-06T08:08:53;7.65;;;4.25;;
22713;SDS011;11524;50.846;4.326;2023-04-06T08:11:19;6.80;;;4.13;;
22713;SDS011;11524;50.846;4.326;2023-04-06T08:13:45;6.95;;;4.03;;
22713;SDS011;11524;50.846;4.326;2023-04-06T08:16:10;6.00;;;4.22;;
22713;SDS011;11524;50.846;4.326;2023-04-06T08:18:36;5.35;;;3.78;;
22713;SDS011;11524;50.846;4.326;2023-04-06T08:21:02;8.07;;;4.65;;
22713;SDS011;11524;50.846;4.326;2023-04-06T08:23:27;7.57;;;4.28;;
22713;SDS011;11524;50.846;4.326;2023-04-06T08:25:54;5.95;;;4.45;;
22713;SDS011;11524;50.846;4.326;2023-04-06T08:28:20;4.70;;;3.65;;
22713;SDS011;11524;50.846;4.326;2023-04-06T08:30:46;4.70;;;3.70;;
22713;SDS011;11524;50.846;4.326;2023-04-06T08:33:12;6.38;;;4.07;;
22713;SDS011;11524;50.846;4.326;2023-04-06T08:35:38;5.90;;;3.80;;
22713;SDS011;11524;50.846;4.326;2023-04-06T08:38:03;5.72;;;3.60;;
22713;SDS011;11524;50.846;4.326;2023-04-06T08:40:29;6.40;;;3.58;;
22713;SDS011;11524;50.846;4.326;2023-04-06T08:42:55;6.68;;;3.83;;
22713;SDS011;11524;50.846;4.326;2023-04-06T08:45:24;5.50;;;3.67;;
22713;SDS011;11524;50.846;4.326;2023-04-06T08:47:51;4.60;;;3.53;;
22713;SDS011;11524;50.846;4.326;2023-04-06T08:50:17;4.63;;;3.22;;
22713;SDS011;11524;50.846;4.326;2023-04-06T08:52:44;6.38;;;3.75;;
22713;SDS011;11524;50.846;4.326;2023-04-06T08:55:25;5.35;;;3.80;;
22713;SDS011;11524;50.846;4.326;2023-04-06T08:57:50;5.70;;;3.67;;
22713;SDS011;11524;50.846;4.326;2023-04-06T09:00:19;4.78;;;3.38;;
22713;SDS011;11524;50.846;4.326;2023-04-06T09:02:46;4.43;;;3.20;;
22713;SDS011;11524;50.846;4.326;2023-04-06T09:05:14;6.18;;;3.22;;
22713;SDS011;11524;50.846;4.326;2023-04-06T09:07:40;5.07;;;2.90;;
22713;SDS011;11524;50.846;4.326;2023-04-06T09:10:08;4.05;;;3.45;;
22713;SDS011;11524;50.846;4.326;2023-04-06T09:12:34;5.63;;;3.50;;
22713;SDS011;11524;50.846;4.326;2023-04-06T09:15:01;6.53;;;3.72;;
22713;SDS011;11524;50.846;4.326;2023-04-06T09:17:28;4.88;;;3.45;;
22713;SDS011;11524;50.846;4.326;2023-04-06T09:19:55;5.13;;;3.00;;
22713;SDS011;11524;50.846;4.326;2023-04-06T09:22:21;7.38;;;4.00;;
22713;SDS011;11524;50.846;4.326;2023-04-06T09:24:50;3.17;;;2.83;;
22713;SDS011;11524;50.846;4.326;2023-04-06T09:27:38;4.30;;;3.30;;
22713;SDS011;11524;50.846;4.326;2023-04-06T09:30:04;5.32;;;3.60;;
22713;SDS011;11524;50.846;4.326;2023-04-06T09:35:12;4.45;;;2.80;;
22713;SDS011;11524;50.846;4.326;2023-04-06T09:37:37;4.53;;;3.15;;
22713;SDS011;11524;50.846;4.326;2023-04-06T09:40:07;4.90;;;2.92;;
22713;SDS011;11524;50.846;4.326;2023-04-06T09:42:34;3.90;;;3.15;;
22713;SDS011;11524;50.846;4.326;2023-04-06T09:45:00;6.30;;;3.67;;
22713;SDS011;11524;50.846;4.326;2023-04-06T09:47:32;3.95;;;3.25;;
22713;SDS011;11524;50.846;4.326;2023-04-06T09:50:00;4.28;;;3.40;;
22713;SDS011;11524;50.846;4.326;2023-04-06T09:52:32;4.72;;;3.38;;
22713;SDS011;11524;50.846;4.326;2023-04-06T09:55:01;5.13;;;3.20;;
22713;SDS011;11524;50.846;4.326;2023-04-06T09:57:30;4.95;;;3.33;;
22713;SDS011;11524;50.846;4.326;2023-04-06T10:00:02;3.70;;;3.00;;
22713;SDS011;11524;50.846;4.326;2023-04-06T10:07:44;4.20;;;2.95;;
22713;SDS011;11524;50.846;4.326;2023-04-06T10:10:11;4.00;;;2.90;;
22713;SDS011;11524;50.846;4.326;2023-04-06T10:12:39;4.70;;;3.20;;
22713;SDS011;11524;50.846;4.326;2023-04-06T10:15:08;5.70;;;3.22;;
22713;SDS011;11524;50.846;4.326;2023-04-06T10:17:34;4.18;;;2.80;;
22713;SDS011;11524;50.846;4.326;2023-04-06T10:20:10;3.70;;;2.80;;
22713;SDS011;11524;50.846;4.326;2023-04-06T10:22:45;4.05;;;3.30;;
22713;SDS011;11524;50.846;4.326;2023-04-06T10:25:31;3.38;;;2.95;;
22713;SDS011;11524;50.846;4.326;2023-04-06T10:28:07;3.38;;;2.90;;
22713;SDS011;11524;50.846;4.326;2023-04-06T10:30:34;3.17;;;2.78;;
22713;SDS011;11524;50.846;4.326;2023-04-06T10:33:16;3.53;;;2.70;;
22713;SDS011;11524;50.846;4.326;2023-04-06T10:35:43;5.55;;;3.17;;
22713;SDS011;11524;50.846;4.326;2023-04-06T10:38:09;4.22;;;2.80;;
22713;SDS011;11524;50.846;4.326;2023-04-06T10:40:38;4.28;;;2.95;;
22713;SDS011;11524;50.846;4.326;2023-04-06T10:43:12;4.47;;;2.80;;
22713;SDS011;11524;50.846;4.326;2023-04-06T10:45:57;3.90;;;3.30;;
22713;SDS011;11524;50.846;4.326;2023-04-06T10:48:24;3.60;;;2.95;;
22713;SDS011;11524;50.846;4.326;2023-04-06T10:51:00;3.97;;;2.80;;
22713;SDS011;11524;50.846;4.326;2023-04-06T10:53:27;4.65;;;3.00;;
22713;SDS011;11524;50.846;4.326;2023-04-06T10:55:56;3.80;;;2.70;;
22713;SDS011;11524;50.846;4.326;2023-04-06T10:58:26;4.82;;;2.50;;
22713;SDS011;11524;50.846;4.326;2023-04-06T11:00:52;4.32;;;2.75;;
22713;SDS011;11524;50.846;4.326;2023-04-06T11:03:20;3.70;;;2.63;;
22713;SDS011;11524;50.846;4.326;2023-04-06T11:05:46;4.18;;;3.38;;
22713;SDS011;11524;50.846;4.326;2023-04-06T11:10:52;4.10;;;2.65;;
22713;SDS011;11524;50.846;4.326;2023-04-06T11:16:14;4.00;;;2.42;;
22713;SDS011;11524;50.846;4.326;2023-04-06T11:21:18;5.00;;;3.30;;
22713;SDS011;11524;50.846;4.326;2023-04-06T11:23:45;3.90;;;2.90;;
22713;SDS011;11524;50.846;4.326;2023-04-06T11:26:12;4.88;;;2.92;;
22713;SDS011;11524;50.846;4.326;2023-04-06T11:28:39;3.45;;;2.35;;
22713;SDS011;11524;50.846;4.326;2023-04-06T11:31:07;4.05;;;2.90;;
22713;SDS011;11524;50.846;4.326;2023-04-06T11:33:37;7.03;;;3.38;;
22713;SDS011;11524;50.846;4.326;2023-04-06T11:36:12;4.10;;;2.35;;
22713;SDS011;11524;50.846;4.326;2023-04-06T11:38:39;3.65;;;2.33;;
22713;SDS011;11524;50.846;4.326;2023-04-06T11:41:05;6.85;;;3.38;;
22713;SDS011;11524;50.846;4.326;2023-04-06T11:43:33;3.85;;;3.10;;
22713;SDS011;11524;50.846;4.326;2023-04-06T11:45:59;5.45;;;2.90;;
22713;SDS011;11524;50.846;4.326;2023-04-06T11:48:29;4.72;;;3.35;;
22713;SDS011;11524;50.846;4.326;2023-04-06T11:50:58;4.00;;;3.13;;
22713;SDS011;11524;50.846;4.326;2023-04-06T11:53:29;4.53;;;3.53;;
22713;SDS011;11524;50.846;4.326;2023-04-06T11:55:58;5.97;;;3.45;;
22713;SDS011;11524;50.846;4.326;2023-04-06T11:58:24;3.10;;;2.05;;
22713;SDS011;11524;50.846;4.326;2023-04-06T12:00:50;4.45;;;3.08;;
22713;SDS011;11524;50.846;4.326;2023-04-06T12:03:16;3.80;;;2.90;;
22713;SDS011;11524;50.846;4.326;2023-04-06T12:05:43;6.05;;;3.00;;
22713;SDS011;11524;50.846;4.326;2023-04-06T12:08:09;4.18;;;3.30;;
22713;SDS011;11524;50.846;4.326;2023-04-06T12:10:34;5.45;;;3.70;;
22713;SDS011;11524;50.846;4.326;2023-04-06T12:13:00;3.42;;;3.05;;
22713;SDS011;11524;50.846;4.326;2023-04-06T12:15:26;7.13;;;3.65;;
22713;SDS011;11524;50.846;4.326;2023-04-06T12:17:51;4.65;;;2.80;;
22713;SDS011;11524;50.846;4.326;2023-04-06T12:20:20;4.60;;;3.00;;
22713;SDS011;11524;50.846;4.326;2023-04-06T12:22:45;3.83;;;2.83;;
22713;SDS011;11524;50.846;4.326;2023-04-06T12:25:11;3.88;;;3.17;;
22713;SDS011;11524;50.846;4.326;2023-04-06T12:27:37;4.60;;;3.33;;
22713;SDS011;11524;50.846;4.326;2023-04-06T12:30:02;4.63;;;2.70;;
22713;SDS011;11524;50.846;4.326;2023-04-06T12:32:28;3.75;;;3.35;;
22713;SDS011;11524;50.846;4.326;2023-04-06T12:34:54;3.25;;;2.35;;
22713;SDS011;11524;50.846;4.326;2023-04-06T12:37:20;3.65;;;2.63;;
22713;SDS011;11524;50.846;4.326;2023-04-06T12:39:46;3.95;;;3.15;;
22713;SDS011;11524;50.846;4.326;2023-04-06T12:42:12;4.13;;;3.22;;
22713;SDS011;11524;50.846;4.326;2023-04-06T12:44:38;3.75;;;3.25;;
22713;SDS011;11524;50.846;4.326;2023-04-06T12:47:04;2.83;;;2.55;;
22713;SDS011;11524;50.846;4.326;2023-04-06T12:49:32;3.70;;;3.30;;
22713;SDS011;11524;50.846;4.326;2023-04-06T12:51:57;3.10;;;2.33;;
22713;SDS011;11524;50.846;4.326;2023-04-06T12:54:23;3.55;;;3.22;;
22713;SDS011;11524;50.846;4.326;2023-04-06T12:56:51;3.53;;;2.80;;
22713;SDS011;11524;50.846;4.326;2023-04-06T12:59:17;4.07;;;3.10;;
22713;SDS011;11524;50.846;4.326;2023-04-06T13:01:42;4.03;;;2.75;;
22713;SDS011;11524;50.846;4.326;2023-04-06T13:04:09;3.25;;;2.60;;
22713;SDS011;11524;50.846;4.326;2023-04-06T13:06:34;2.58;;;2.33;;
22713;SDS011;11524;50.846;4.326;2023-04-06T13:09:00;3.53;;;2.92;;
22713;SDS011;11524;50.846;4.326;2023-04-06T13:11:26;3.28;;;2.80;;
22713;SDS011;11524;50.846;4.326;2023-04-06T13:13:51;4.05;;;3.00;;
22713;SDS011;11524;50.846;4.326;2023-04-06T13:16:17;3.33;;;2.60;;
22713;SDS011;11524;50.846;4.326;2023-04-06T13:18:43;3.65;;;3.28;;
22713;SDS011;11524;50.846;4.326;2023-04-06T13:21:09;4.70;;;3.30;;
22713;SDS011;11524;50.846;4.326;2023-04-06T13:23:39;4.28;;;3.53;;
22713;SDS011;11524;50.846;4.326;2023-04-06T13:26:06;4.03;;;3.28;;
22713;SDS011;11524;50.846;4.326;2023-04-06T13:28:33;3.88;;;3.03;;
22713;SDS011;11524;50.846;4.326;2023-04-06T13:31:02;5.13;;;3.50;;
22713;SDS011;11524;50.846;4.326;2023-04-06T13:33:28;4.30;;;3.13;;
22713;SDS011;11524;50.846;4.326;2023-04-06T13:35:55;4.25;;;3.50;;
22713;SDS011;11524;50.846;4.326;2023-04-06T13:38:21;4.00;;;3.38;;
22713;SDS011;11524;50.846;4.326;2023-04-06T13:40:49;3.65;;;2.70;;
22713;SDS011;11524;50.846;4.326;2023-04-06T13:43:14;3.45;;;2.97;;
22713;SDS011;11524;50.846;4.326;2023-04-06T13:45:40;5.13;;;3.00;;
22713;SDS011;11524;50.846;4.326;2023-04-06T13:48:06;3.95;;;3.22;;
22713;SDS011;11524;50.846;4.326;2023-04-06T13:50:32;4.43;;;3.10;;
22713;SDS011;11524;50.846;4.326;2023-04-06T13:52:58;3.00;;;2.40;;
22713;SDS011;11524;50.846;4.326;2023-04-06T13:55:26;3.72;;;3.33;;
22713;SDS011;11524;50.846;4.326;2023-04-06T13:57:52;3.00;;;2.33;;
22713;SDS011;11524;50.846;4.326;2023-04-06T14:00:18;5.22;;;3.38;;
22713;SDS011;11524;50.846;4.326;2023-04-06T14:02:44;4.00;;;3.22;;
22713;SDS011;11524;50.846;4.326;2023-04-06T14:05:10;3.83;;;3.30;;
22713;SDS011;11524;50.846;4.326;2023-04-06T14:07:39;4.35;;;3.63;;
22713;SDS011;11524;50.846;4.326;2023-04-06T14:10:08;5.22;;;3.38;;
22713;SDS011;11524;50.846;4.326;2023-04-06T14:12:39;4.95;;;3.17;;
22713;SDS011;11524;50.846;4.326;2023-04-06T14:15:05;4.03;;;3.45;;
22713;SDS011;11524;50.846;4.326;2023-04-06T14:17:32;4.25;;;3.35;;
22713;SDS011;11524;50.846;4.326;2023-04-06T14:19:58;3.40;;;2.97;;
22713;SDS011;11524;50.846;4.326;2023-04-06T14:22:24;5.63;;;3.38;;
22713;SDS011;11524;50.846;4.326;2023-04-06T14:24:50;4.53;;;3.25;;
22713;SDS011;11524;50.846;4.326;2023-04-06T14:27:15;4.20;;;2.83;;
22713;SDS011;11524;50.846;4.326;2023-04-06T14:29:41;3.97;;;2.85;;
22713;SDS011;11524;50.846;4.326;2023-04-06T14:32:07;3.70;;;3.05;;
22713;SDS011;11524;50.846;4.326;2023-04-06T14:34:33;4.07;;;2.63;;
22713;SDS011;11524;50.846;4.326;2023-04-06T14:37:01;3.08;;;2.67;;
22713;SDS011;11524;50.846;4.326;2023-04-06T14:39:27;3.30;;;2.90;;
22713;SDS011;11524;50.846;4.326;2023-04-06T14:41:53;4.72;;;3.28;;
22713;SDS011;11524;50.846;4.326;2023-04-06T14:44:18;3.83;;;3.35;;
22713;SDS011;11524;50.846;4.326;2023-04-06T14:46:44;5.25;;;3.63;;
22713;SDS011;11524;50.846;4.326;2023-04-06T14:49:10;6.53;;;3.58;;
22713;SDS011;11524;50.846;4.326;2023-04-06T14:51:36;4.63;;;3.50;;
22713;SDS011;11524;50.846;4.326;2023-04-06T14:54:01;3.85;;;2.95;;
22713;SDS011;11524;50.846;4.326;2023-04-06T14:56:30;4.85;;;3.42;;
22713;SDS011;11524;50.846;4.326;2023-04-06T14:58:59;3.72;;;2.63;;